createdAt,value
2019-02-16T00:00:40.376Z,14.30
2019-02-16T00:03:09.819Z,19.33
2019-02-16T00:05:37.596Z,16.60
2019-02-16T00:08:07.964Z,19.13
2019-02-16T00:10:36.341Z,17.90
2019-02-16T00:13:05.935Z,16.83
2019-02-16T00:15:34.745Z,18.07
2019-02-16T00:18:06.096Z,15.07
2019-02-16T00:20:34.595Z,14.80
2019-02-16T00:23:02.942Z,18.60
2019-02-16T00:25:31.652Z,13.10
2019-02-16T00:28:00.611Z,17.17
2019-02-16T00:30:29.316Z,13.17
2019-02-16T00:32:56.990Z,13.67
2019-02-16T00:35:25.464Z,15.60
2019-02-16T00:37:53.854Z,12.40
2019-02-16T00:40:21.951Z,19.77
2019-02-16T00:42:50.017Z,16.70
2019-02-16T00:45:18.350Z,16.20
2019-02-16T00:47:46.317Z,18.77
2019-02-16T00:50:14.699Z,16.30
2019-02-16T00:52:42.807Z,18.77
2019-02-16T00:55:12.134Z,20.23
2019-02-16T00:57:43.361Z,23.10
2019-02-16T01:00:13.758Z,27.27
2019-02-16T01:02:41.739Z,22.23
2019-02-16T01:05:10.720Z,30.40
2019-02-16T01:07:38.713Z,19.73
2019-02-16T01:10:07.085Z,17.93
2019-02-16T01:12:35.964Z,13.83
2019-02-16T01:15:05.104Z,13.50
2019-02-16T01:17:33.754Z,15.37
2019-02-16T01:20:01.818Z,11.20
2019-02-16T01:22:29.892Z,17.17
2019-02-16T01:24:58.436Z,15.53
2019-02-16T01:27:26.387Z,17.07
2019-02-16T01:29:54.724Z,22.63
2019-02-16T01:32:22.788Z,19.60
2019-02-16T01:34:51.062Z,16.20
2019-02-16T01:37:19.352Z,20.40
2019-02-16T01:39:47.507Z,15.33
2019-02-16T01:42:15.941Z,15.00
2019-02-16T01:44:43.873Z,15.87
2019-02-16T01:47:12.465Z,22.13
2019-02-16T01:49:40.320Z,28.87
2019-02-16T01:52:10.035Z,17.93
2019-02-16T01:54:38.715Z,18.30
2019-02-16T01:57:07.095Z,18.50
2019-02-16T01:59:36.008Z,17.60
2019-02-16T02:02:04.076Z,17.17
2019-02-16T02:04:31.655Z,17.17
2019-02-16T02:07:00.518Z,14.80
2019-02-16T02:09:28.487Z,20.03
2019-02-16T02:11:57.008Z,15.27
2019-02-16T02:14:25.972Z,18.97
2019-02-16T02:16:54.054Z,12.50
2019-02-16T02:19:22.652Z,17.10
2019-02-16T02:21:51.089Z,14.60
2019-02-16T02:24:18.976Z,17.13
2019-02-16T02:26:47.872Z,16.30
2019-02-16T02:29:15.838Z,16.10
2019-02-16T02:31:43.136Z,17.60
2019-02-16T02:34:11.381Z,18.77
2019-02-16T02:36:39.850Z,12.60
2019-02-16T02:39:08.229Z,16.93
2019-02-16T02:41:36.260Z,16.83
2019-02-16T02:44:03.763Z,15.60
2019-02-16T02:46:31.822Z,16.17
2019-02-16T02:48:59.375Z,28.47
2019-02-16T02:51:28.083Z,15.67
2019-02-16T02:53:55.933Z,19.70
2019-02-16T02:56:24.723Z,15.17
2019-02-16T02:58:53.007Z,15.53
2019-02-16T03:01:21.882Z,15.40
2019-02-16T03:03:49.135Z,21.00
2019-02-16T03:06:16.752Z,21.77
2019-02-16T03:08:45.185Z,21.20
2019-02-16T03:11:14.081Z,16.50
2019-02-16T03:13:41.779Z,22.40
2019-02-16T03:16:10.025Z,21.63
2019-02-16T03:18:37.284Z,27.27
2019-02-16T03:21:06.616Z,22.37
2019-02-16T03:23:34.960Z,21.57
2019-02-16T03:26:08.456Z,22.40
2019-02-16T03:28:55.785Z,21.90
2019-02-16T03:31:51.918Z,17.07
2019-02-16T03:34:25.284Z,17.63
2019-02-16T03:37:11.644Z,29.97
2019-02-16T03:39:42.709Z,20.67
2019-02-16T03:42:11.436Z,17.03
2019-02-16T03:44:39.820Z,20.13
2019-02-16T03:47:08.807Z,22.87
2019-02-16T03:49:36.697Z,19.50
2019-02-16T03:52:13.253Z,18.50
2019-02-16T03:54:34.550Z,17.13
2019-02-16T03:57:03.477Z,13.43
2019-02-16T03:59:32.050Z,18.83
2019-02-16T04:02:00.434Z,16.80
2019-02-16T04:04:28.999Z,20.73
2019-02-16T04:06:57.575Z,13.30
2019-02-16T04:09:25.997Z,17.60
2019-02-16T04:11:53.717Z,21.77
2019-02-16T04:14:24.056Z,15.13
2019-02-16T04:16:52.325Z,12.80
2019-02-16T04:19:19.895Z,15.30
2019-02-16T04:21:47.744Z,13.23
2019-02-16T04:24:17.922Z,13.40
2019-02-16T04:26:47.903Z,14.27
2019-02-16T04:29:16.196Z,17.13
2019-02-16T04:31:44.178Z,16.60
2019-02-16T04:34:12.967Z,15.07
2019-02-16T04:36:41.727Z,12.97
2019-02-16T04:39:11.056Z,11.70
2019-02-16T04:41:38.847Z,11.63
2019-02-16T04:44:06.867Z,13.63
2019-02-16T04:46:34.835Z,12.17
2019-02-16T04:49:02.825Z,19.87
2019-02-16T04:51:32.161Z,14.60
2019-02-16T04:54:00.108Z,12.93
2019-02-16T04:56:28.226Z,16.60
2019-02-16T04:58:56.547Z,14.87
2019-02-16T05:01:24.382Z,12.37
2019-02-16T05:03:51.977Z,13.27
2019-02-16T05:06:20.352Z,19.30
2019-02-16T05:08:48.300Z,14.67
2019-02-16T05:11:16.160Z,13.57
2019-02-16T05:13:44.123Z,17.57
2019-02-16T05:16:11.746Z,13.50
2019-02-16T05:18:39.756Z,19.93
2019-02-16T05:21:07.328Z,19.43
2019-02-16T05:23:35.395Z,16.63
2019-02-16T05:26:04.511Z,22.33
2019-02-16T05:28:33.189Z,17.73
2019-02-16T05:31:01.500Z,12.80
2019-02-16T05:33:32.820Z,16.53
2019-02-16T05:36:01.225Z,15.20
2019-02-16T05:38:31.710Z,19.03
2019-02-16T05:41:00.114Z,18.97
2019-02-16T05:43:28.292Z,15.50
2019-02-16T05:45:57.066Z,16.03
2019-02-16T05:48:25.340Z,19.97
2019-02-16T05:50:53.592Z,15.70
2019-02-16T05:53:21.381Z,14.50
2019-02-16T05:55:49.242Z,12.73
2019-02-16T05:58:17.111Z,14.53
2019-02-16T06:00:45.987Z,15.13
2019-02-16T06:03:14.408Z,18.57
2019-02-16T06:05:42.671Z,13.63
2019-02-16T06:08:10.757Z,18.63
2019-02-16T06:10:38.925Z,17.77
2019-02-16T06:13:07.008Z,13.80
2019-02-16T06:15:35.627Z,13.43
2019-02-16T06:18:04.186Z,15.47
2019-02-16T06:20:32.268Z,13.70
2019-02-16T06:23:04.201Z,12.80
2019-02-16T06:25:32.017Z,10.80
2019-02-16T06:28:00.142Z,13.33
2019-02-16T06:30:28.199Z,16.43
2019-02-16T06:32:56.050Z,14.77
2019-02-16T06:35:42.166Z,15.53
2019-02-16T06:38:09.833Z,16.50
2019-02-16T06:40:37.509Z,14.87
2019-02-16T06:43:05.596Z,15.60
2019-02-16T06:45:35.067Z,15.17
2019-02-16T06:48:03.199Z,14.50
2019-02-16T06:50:37.027Z,14.20
2019-02-16T06:53:03.291Z,14.80
2019-02-16T06:55:43.331Z,16.40
2019-02-16T06:58:11.710Z,17.50
2019-02-16T07:00:39.381Z,13.80
2019-02-16T07:03:08.167Z,24.07
2019-02-16T07:05:38.523Z,21.93
2019-02-16T07:08:08.629Z,11.57
2019-02-16T07:10:37.179Z,16.90
2019-02-16T07:13:05.367Z,15.10
2019-02-16T07:15:35.141Z,15.60
2019-02-16T07:18:14.852Z,17.53
2019-02-16T07:20:45.190Z,13.17
2019-02-16T07:23:21.979Z,16.03
2019-02-16T07:25:43.848Z,16.23
2019-02-16T07:28:11.912Z,15.77
2019-02-16T07:30:39.925Z,17.57
2019-02-16T07:33:08.389Z,19.23
2019-02-16T07:35:36.864Z,17.27
2019-02-16T07:38:06.109Z,12.23
2019-02-16T07:40:37.622Z,15.00
2019-02-16T07:43:08.417Z,16.93
2019-02-16T07:45:45.097Z,12.90
2019-02-16T07:48:26.296Z,18.13
2019-02-16T07:51:20.718Z,17.47
2019-02-16T07:54:06.306Z,15.27
2019-02-16T07:56:50.858Z,16.93
2019-02-16T07:59:24.643Z,14.83
2019-02-16T08:02:13.412Z,16.83
2019-02-16T08:05:09.857Z,19.70
2019-02-16T08:07:57.065Z,14.30
2019-02-16T08:10:44.052Z,15.63
2019-02-16T08:13:39.313Z,19.50
2019-02-16T08:16:13.920Z,15.27
2019-02-16T08:19:07.385Z,23.13
2019-02-16T08:22:09.466Z,18.03
2019-02-16T08:24:57.641Z,19.40
2019-02-16T08:27:53.181Z,23.93
2019-02-16T08:30:55.996Z,20.07
2019-02-16T08:33:43.420Z,25.13
2019-02-16T08:36:36.738Z,23.90
2019-02-16T08:39:23.399Z,19.47
2019-02-16T08:42:14.353Z,19.33
2019-02-16T08:45:08.499Z,21.50
2019-02-16T08:47:52.641Z,19.47
2019-02-16T08:50:48.955Z,18.33
2019-02-16T08:53:39.622Z,22.70
2019-02-16T08:56:36.305Z,16.20
2019-02-16T08:59:26.094Z,23.07
2019-02-16T09:02:03.519Z,23.50
2019-02-16T09:04:51.210Z,21.60
2019-02-16T09:07:40.805Z,24.67
2019-02-16T09:10:28.623Z,25.77
2019-02-16T09:13:12.680Z,18.80
2019-02-16T09:15:50.494Z,20.90
2019-02-16T09:18:44.030Z,19.60
2019-02-16T09:21:19.182Z,20.13
2019-02-16T09:24:06.812Z,23.60
2019-02-16T09:26:52.858Z,26.03
2019-02-16T09:29:51.122Z,25.90
2019-02-16T09:33:02.182Z,22.93
2019-02-16T09:35:47.689Z,19.40
2019-02-16T09:38:34.111Z,20.97
2019-02-16T09:41:33.680Z,20.03
2019-02-16T09:44:32.046Z,28.83
2019-02-16T09:47:20.794Z,22.60
2019-02-16T09:50:07.612Z,26.47
2019-02-16T09:53:09.696Z,21.00
2019-02-16T09:55:57.318Z,23.23
2019-02-16T09:58:49.868Z,22.40
2019-02-16T10:01:43.240Z,31.20
2019-02-16T10:04:15.445Z,20.73
2019-02-16T10:07:01.844Z,22.37
2019-02-16T10:09:56.098Z,23.73
2019-02-16T10:12:34.610Z,26.90
2019-02-16T10:15:30.953Z,22.73
2019-02-16T10:18:37.323Z,22.20
2019-02-16T10:21:23.404Z,23.67
2019-02-16T10:24:26.332Z,22.63
2019-02-16T10:27:12.546Z,21.27
2019-02-16T10:29:58.739Z,21.83
2019-02-16T10:32:45.111Z,20.83
2019-02-16T10:35:31.002Z,21.90
2019-02-16T10:38:17.187Z,20.07
2019-02-16T10:41:07.509Z,24.73
2019-02-16T10:43:42.744Z,24.47
2019-02-16T10:46:32.947Z,29.47
2019-02-16T10:49:13.686Z,67.27
2019-02-16T10:52:06.629Z,23.83
2019-02-16T10:54:52.951Z,22.70
2019-02-16T10:57:40.118Z,20.90
2019-02-16T11:00:20.092Z,21.07
2019-02-16T11:03:00.275Z,21.97
2019-02-16T11:05:37.264Z,21.03
2019-02-16T11:08:31.850Z,20.40
2019-02-16T11:11:28.889Z,20.17
2019-02-16T11:14:14.002Z,22.43
2019-02-16T11:16:53.718Z,19.73
2019-02-16T11:19:39.530Z,21.17
2019-02-16T11:22:22.573Z,20.07
2019-02-16T11:25:16.421Z,21.07
2019-02-16T11:27:56.086Z,25.87
2019-02-16T11:30:34.183Z,21.80
2019-02-16T11:33:10.785Z,20.10
2019-02-16T11:36:00.409Z,21.10
2019-02-16T11:38:44.450Z,21.33
2019-02-16T11:41:19.256Z,26.03
2019-02-16T11:44:03.855Z,21.40
2019-02-16T11:46:47.225Z,20.73
2019-02-16T11:49:30.298Z,21.83
2019-02-16T11:52:32.763Z,23.70
2019-02-16T11:55:35.546Z,31.77
2019-02-16T11:58:22.701Z,31.17
2019-02-16T12:01:06.271Z,23.67
2019-02-16T12:04:08.731Z,21.33
2019-02-16T12:06:55.382Z,22.13
2019-02-16T12:09:44.870Z,26.37
2019-02-16T12:12:20.136Z,22.00
2019-02-16T12:15:07.759Z,23.10
2019-02-16T12:17:53.650Z,22.43
2019-02-16T12:20:39.927Z,22.77
2019-02-16T12:23:26.784Z,24.30
2019-02-16T12:26:03.726Z,23.73
2019-02-16T12:28:44.539Z,25.63
2019-02-16T12:31:50.083Z,24.27
2019-02-16T12:34:37.918Z,23.87
2019-02-16T12:37:12.613Z,23.90
2019-02-16T12:39:53.254Z,23.97
2019-02-16T12:42:39.649Z,26.47
2019-02-16T12:45:37.033Z,24.67
2019-02-16T12:48:22.082Z,24.27
2019-02-16T12:51:06.251Z,28.50
2019-02-16T12:53:54.083Z,27.97
2019-02-16T12:56:53.823Z,27.40
2019-02-16T12:59:29.160Z,26.23
2019-02-16T13:02:17.381Z,29.63
2019-02-16T13:05:07.589Z,26.90
2019-02-16T13:07:56.035Z,26.67
2019-02-16T13:10:47.886Z,28.73
2019-02-16T13:13:28.542Z,25.50
2019-02-16T13:16:22.707Z,31.57
2019-02-16T13:19:09.013Z,28.30
2019-02-16T13:22:08.636Z,28.27
2019-02-16T13:25:10.997Z,27.80
2019-02-16T13:27:59.446Z,28.70
2019-02-16T13:30:47.798Z,29.53
2019-02-16T13:33:45.780Z,26.40
2019-02-16T13:36:21.209Z,27.43
2019-02-16T13:39:08.467Z,27.50
2019-02-16T13:41:42.005Z,28.73
2019-02-16T13:44:35.247Z,27.60
2019-02-16T13:47:11.267Z,27.80
2019-02-16T13:49:52.148Z,28.23
2019-02-16T13:52:26.569Z,24.80
2019-02-16T13:55:14.678Z,26.30
2019-02-16T13:57:56.597Z,26.23
2019-02-16T14:00:34.104Z,27.80
2019-02-16T14:03:15.996Z,27.53
2019-02-16T14:05:55.856Z,27.97
2019-02-16T14:08:46.528Z,26.80
2019-02-16T14:11:45.946Z,25.27
2019-02-16T14:14:25.297Z,28.57
2019-02-16T14:17:11.468Z,26.03
2019-02-16T14:19:39.778Z,26.40
2019-02-16T14:22:08.171Z,24.70
2019-02-16T14:24:45.183Z,26.80
2019-02-16T14:27:14.169Z,24.03
2019-02-16T14:29:42.438Z,25.13
2019-02-16T14:32:10.902Z,26.13
2019-02-16T14:34:40.057Z,25.30
2019-02-16T14:37:18.996Z,26.13
2019-02-16T14:39:47.493Z,28.37
2019-02-16T14:42:15.957Z,24.60
2019-02-16T14:44:45.091Z,28.77
2019-02-16T14:47:13.537Z,26.43
2019-02-16T14:49:41.567Z,30.10
2019-02-16T14:52:11.821Z,25.70
2019-02-16T14:54:39.412Z,24.17
2019-02-16T14:57:08.195Z,25.27
2019-02-16T14:59:36.235Z,28.30
2019-02-16T15:02:04.865Z,23.07
2019-02-16T15:04:32.508Z,24.20
2019-02-16T15:07:00.987Z,24.20
2019-02-16T15:09:28.965Z,24.10
2019-02-16T15:11:56.997Z,26.87
2019-02-16T15:14:26.041Z,24.63
2019-02-16T15:16:55.539Z,28.53
2019-02-16T15:19:25.680Z,27.00
2019-02-16T15:21:54.343Z,28.07
2019-02-16T15:24:22.651Z,29.13
2019-02-16T15:26:50.695Z,25.70
2019-02-16T15:29:18.659Z,25.87
2019-02-16T15:31:46.309Z,24.77
2019-02-16T15:34:14.332Z,29.73
2019-02-16T15:36:42.299Z,29.90
2019-02-16T15:39:10.228Z,32.37
2019-02-16T15:41:38.480Z,30.83
2019-02-16T15:44:06.680Z,34.43
2019-02-16T15:46:34.951Z,31.53
2019-02-16T15:49:03.752Z,34.57
2019-02-16T15:51:31.827Z,32.20
2019-02-16T15:54:01.487Z,32.67
2019-02-16T15:56:28.782Z,32.80
2019-02-16T15:58:57.084Z,31.67
2019-02-16T16:01:25.416Z,36.67
2019-02-16T16:03:53.968Z,38.20
2019-02-16T16:06:22.327Z,36.50
2019-02-16T16:08:59.093Z,33.10
2019-02-16T16:11:58.113Z,33.20
2019-02-16T16:14:43.560Z,38.17
2019-02-16T16:17:30.298Z,32.00
2019-02-16T16:20:20.241Z,36.30
2019-02-16T16:23:10.848Z,37.80
2019-02-16T16:25:45.501Z,35.00
2019-02-16T16:28:31.047Z,36.30
2019-02-16T16:31:17.792Z,35.60
2019-02-16T16:34:14.603Z,31.97
2019-02-16T16:37:01.147Z,37.93
2019-02-16T16:39:37.887Z,33.47
2019-02-16T16:42:29.762Z,34.47
2019-02-16T16:45:10.236Z,32.53
2019-02-16T16:48:07.138Z,34.27
2019-02-16T16:50:51.207Z,36.33
2019-02-16T16:53:41.046Z,40.83
2019-02-16T16:56:28.670Z,41.13
2019-02-16T16:59:20.241Z,37.83
2019-02-16T17:02:19.948Z,42.30
2019-02-16T17:05:04.080Z,39.77
2019-02-16T17:07:54.492Z,47.27
2019-02-16T17:10:42.415Z,45.37
2019-02-16T17:13:36.376Z,50.70
2019-02-16T17:16:24.044Z,39.40
2019-02-16T17:19:14.139Z,42.57
2019-02-16T17:22:01.635Z,40.40
2019-02-16T17:24:48.360Z,34.67
2019-02-16T17:27:42.005Z,30.57
2019-02-16T17:30:26.894Z,37.77
2019-02-16T17:33:20.159Z,35.30
2019-02-16T17:35:56.714Z,34.37
2019-02-16T17:38:44.392Z,37.67
2019-02-16T17:41:43.579Z,32.73
2019-02-16T17:44:34.762Z,28.93
2019-02-16T17:47:21.177Z,27.37
2019-02-16T17:50:24.008Z,32.63
2019-02-16T17:53:11.682Z,27.57
2019-02-16T17:55:55.384Z,29.77
2019-02-16T17:58:42.148Z,30.57
2019-02-16T18:01:28.967Z,27.50
2019-02-16T18:04:16.709Z,27.70
2019-02-16T18:07:08.547Z,28.33
2019-02-16T18:09:47.060Z,31.93
2019-02-16T18:12:25.688Z,30.70
2019-02-16T18:15:28.035Z,29.50
2019-02-16T18:18:14.678Z,31.90
2019-02-16T18:21:11.798Z,29.80
2019-02-16T18:23:47.668Z,29.20
2019-02-16T18:26:37.167Z,32.23
2019-02-16T18:29:14.517Z,30.97
2019-02-16T18:32:02.972Z,30.67
2019-02-16T18:34:48.180Z,30.90
2019-02-16T18:37:31.263Z,35.80
2019-02-16T18:40:24.436Z,32.50
2019-02-16T18:43:10.230Z,31.47
2019-02-16T18:46:03.890Z,32.90
2019-02-16T18:48:52.969Z,33.83
2019-02-16T18:51:59.615Z,44.87
2019-02-16T18:54:56.401Z,37.10
2019-02-16T18:57:41.243Z,35.67
2019-02-16T19:00:21.074Z,32.23
2019-02-16T19:03:10.271Z,33.53
2019-02-16T19:06:03.047Z,32.20
2019-02-16T19:08:56.999Z,31.20
2019-02-16T19:11:41.320Z,32.80
2019-02-16T19:14:44.032Z,29.83
2019-02-16T19:17:20.536Z,33.47
2019-02-16T19:20:23.381Z,34.87
2019-02-16T19:22:58.124Z,38.13
2019-02-16T19:25:45.014Z,31.80
2019-02-16T19:28:31.094Z,33.30
2019-02-16T19:31:18.253Z,31.27
2019-02-16T19:34:05.976Z,35.40
2019-02-16T19:36:53.810Z,35.27
2019-02-16T19:39:41.049Z,37.47
2019-02-16T19:42:20.244Z,31.83
2019-02-16T19:45:03.812Z,33.33
2019-02-16T19:47:38.851Z,33.40
2019-02-16T19:50:26.511Z,46.33
2019-02-16T19:53:09.901Z,36.37
2019-02-16T19:55:57.440Z,33.23
2019-02-16T19:58:40.022Z,35.20
2019-02-16T20:01:27.275Z,35.47
2019-02-16T20:04:18.028Z,30.43
2019-02-16T20:07:05.914Z,34.23
2019-02-16T20:09:46.411Z,27.17
2019-02-16T20:12:32.790Z,31.37
2019-02-16T20:15:11.809Z,33.87
2019-02-16T20:17:56.156Z,37.97
2019-02-16T20:20:49.695Z,27.03
2019-02-16T20:23:39.995Z,35.23
2019-02-16T20:26:43.442Z,37.63
2019-02-16T20:29:33.702Z,31.70
2019-02-16T20:32:28.340Z,32.93
2019-02-16T20:35:06.046Z,31.67
2019-02-16T20:37:58.124Z,25.87
2019-02-16T20:40:40.430Z,36.27
2019-02-16T20:43:17.548Z,26.40
2019-02-16T20:46:01.266Z,27.97
2019-02-16T20:49:06.825Z,32.93
2019-02-16T20:51:43.233Z,32.80
2019-02-16T20:54:43.006Z,31.20
2019-02-16T20:57:32.989Z,31.40
2019-02-16T21:00:20.107Z,29.83
2019-02-16T21:03:05.811Z,32.17
2019-02-16T21:05:51.132Z,34.23
2019-02-16T21:08:44.646Z,30.17
2019-02-16T21:11:51.002Z,28.73
2019-02-16T21:14:37.072Z,32.03
2019-02-16T21:17:25.497Z,29.50
2019-02-16T21:20:22.096Z,31.27
2019-02-16T21:23:18.769Z,28.13
2019-02-16T21:26:00.820Z,29.50
2019-02-16T21:29:06.146Z,31.47
2019-02-16T21:31:52.590Z,34.53
2019-02-16T21:34:40.095Z,28.87
2019-02-16T21:37:34.091Z,32.00
2019-02-16T21:40:11.234Z,35.30
2019-02-16T21:42:46.323Z,34.90
2019-02-16T21:45:40.819Z,28.00
2019-02-16T21:48:26.554Z,30.37
2019-02-16T21:51:09.385Z,27.47
2019-02-16T21:53:48.757Z,31.90
2019-02-16T21:56:43.400Z,29.70
2019-02-16T21:59:30.156Z,28.60
2019-02-16T22:02:21.151Z,31.20
2019-02-16T22:05:07.863Z,30.33
2019-02-16T22:07:58.068Z,30.53
2019-02-16T22:10:51.675Z,28.53
2019-02-16T22:13:20.103Z,30.23
2019-02-16T22:15:50.253Z,30.33
2019-02-16T22:18:18.990Z,30.80
2019-02-16T22:20:47.111Z,32.50
2019-02-16T22:23:15.569Z,28.20
2019-02-16T22:25:43.056Z,27.30
2019-02-16T22:28:18.427Z,28.47
2019-02-16T22:30:42.098Z,30.20
2019-02-16T22:33:10.690Z,32.90
2019-02-16T22:35:38.815Z,28.00
2019-02-16T22:38:06.963Z,34.63
2019-02-16T22:40:37.922Z,29.60
2019-02-16T22:43:06.689Z,29.80
2019-02-16T22:45:35.136Z,29.97
2019-02-16T22:48:02.520Z,29.90
2019-02-16T22:50:31.002Z,27.43
2019-02-16T22:52:58.994Z,28.70
2019-02-16T22:55:27.741Z,33.50
2019-02-16T22:57:56.999Z,34.83
2019-02-16T23:00:37.069Z,29.10
2019-02-16T23:03:06.698Z,30.00
2019-02-16T23:05:34.816Z,33.33
2019-02-16T23:08:04.416Z,29.80
2019-02-16T23:10:32.717Z,36.10
2019-02-16T23:13:01.210Z,29.07
2019-02-16T23:15:29.667Z,33.80
2019-02-16T23:17:57.371Z,33.67
2019-02-16T23:20:25.192Z,31.80
2019-02-16T23:22:53.325Z,37.63
2019-02-16T23:25:21.856Z,35.30
2019-02-16T23:27:50.135Z,38.93
2019-02-16T23:30:18.117Z,31.20
2019-02-16T23:32:49.234Z,37.13
2019-02-16T23:35:17.335Z,34.03
2019-02-16T23:37:47.052Z,35.07
2019-02-16T23:40:14.999Z,34.03
2019-02-16T23:42:42.653Z,29.10
2019-02-16T23:45:11.347Z,31.20
2019-02-16T23:47:39.353Z,36.20
2019-02-16T23:50:06.955Z,28.63
2019-02-16T23:52:34.917Z,34.50
2019-02-16T23:55:03.113Z,35.27
2019-02-16T23:57:32.032Z,30.57
